createdAt,value
2022-10-28T00:00:02.369Z,6.70
2022-10-28T00:01:02.363Z,7.20
2022-10-28T00:02:02.510Z,7.70
2022-10-28T00:03:02.438Z,6.90
2022-10-28T00:04:02.322Z,8.00
2022-10-28T00:05:02.304Z,7.40
2022-10-28T00:06:03.100Z,7.70
2022-10-28T00:07:02.305Z,7.60
2022-10-28T00:08:02.252Z,7.00
2022-10-28T00:09:02.651Z,7.20
2022-10-28T00:10:02.238Z,7.40
2022-10-28T00:11:02.234Z,7.80
2022-10-28T00:12:02.254Z,7.10
2022-10-28T00:13:02.199Z,7.00
2022-10-28T00:14:02.181Z,7.30
2022-10-28T00:15:02.173Z,7.20
2022-10-28T00:16:02.155Z,7.40
2022-10-28T00:17:02.186Z,7.10
2022-10-28T00:18:02.136Z,7.70
2022-10-28T00:19:02.126Z,7.80
2022-10-28T00:20:02.105Z,7.10
2022-10-28T00:21:02.097Z,7.30
2022-10-28T00:22:02.097Z,7.40
2022-10-28T00:23:02.080Z,7.70
2022-10-28T00:24:02.069Z,7.30
2022-10-28T00:25:02.036Z,6.90
2022-10-28T00:26:02.033Z,7.10
2022-10-28T00:27:02.059Z,7.40
2022-10-28T00:28:02.005Z,7.50
2022-10-28T00:29:02.006Z,7.30
2022-10-28T00:30:01.972Z,7.40
2022-10-28T00:31:01.952Z,7.40
2022-10-28T00:32:01.969Z,7.60
2022-10-28T00:33:01.952Z,7.60
2022-10-28T00:34:01.923Z,6.90
2022-10-28T00:35:01.898Z,7.20
2022-10-28T00:36:04.242Z,7.30
2022-10-28T00:37:01.894Z,7.20
2022-10-28T00:38:01.866Z,7.10
2022-10-28T00:39:01.853Z,6.70
2022-10-28T00:40:01.847Z,7.00
2022-10-28T00:41:01.829Z,7.00
2022-10-28T00:42:01.836Z,6.90
2022-10-28T00:43:01.801Z,6.90
2022-10-28T00:44:01.795Z,6.90
2022-10-28T00:45:01.801Z,7.00
2022-10-28T00:46:01.772Z,7.10
2022-10-28T00:47:01.769Z,8.00
2022-10-28T00:48:01.735Z,7.00
2022-10-28T00:49:01.715Z,6.90
2022-10-28T00:50:01.731Z,6.70
2022-10-28T00:51:01.691Z,7.80
2022-10-28T00:52:01.709Z,7.10
2022-10-28T00:53:01.669Z,6.90
2022-10-28T00:54:02.028Z,7.90
2022-10-28T00:55:01.644Z,6.80
2022-10-28T00:56:01.644Z,6.80
2022-10-28T00:57:01.637Z,6.50
2022-10-28T00:58:01.602Z,7.60
2022-10-28T00:59:01.593Z,6.90
2022-10-28T01:00:01.579Z,6.80
2022-10-28T01:01:01.562Z,6.40
2022-10-28T01:02:01.672Z,7.40
2022-10-28T01:03:01.541Z,6.70
2022-10-28T01:04:01.538Z,6.90
2022-10-28T01:05:01.502Z,6.90
2022-10-28T01:06:01.511Z,6.60
2022-10-28T01:07:01.518Z,7.10
2022-10-28T01:08:01.475Z,6.70
2022-10-28T01:09:01.458Z,6.80
2022-10-28T01:10:01.454Z,6.70
2022-10-28T01:11:01.451Z,6.40
2022-10-28T01:12:01.446Z,6.80
2022-10-28T01:13:01.403Z,7.10
2022-10-28T01:14:01.403Z,6.70
2022-10-28T01:15:01.372Z,6.80
2022-10-28T01:16:01.390Z,6.60
2022-10-28T01:17:01.370Z,7.00
2022-10-28T01:18:01.345Z,6.90
2022-10-28T01:19:01.324Z,7.00
2022-10-28T01:20:01.316Z,7.10
2022-10-28T01:21:01.292Z,7.20
2022-10-28T01:22:01.305Z,7.10
2022-10-28T01:23:01.279Z,6.70
2022-10-28T01:24:01.274Z,7.00
2022-10-28T01:25:01.245Z,6.90
2022-10-28T01:26:01.236Z,6.90
2022-10-28T01:27:01.235Z,6.80
2022-10-28T01:28:01.204Z,6.20
2022-10-28T01:29:01.249Z,7.00
2022-10-28T01:30:01.191Z,6.80
2022-10-28T01:31:01.179Z,7.30
2022-10-28T01:32:01.150Z,7.40
2022-10-28T01:33:01.146Z,6.10
2022-10-28T01:34:01.146Z,8.20
2022-10-28T01:35:01.114Z,6.50
2022-10-28T01:36:01.130Z,6.70
2022-10-28T01:37:01.085Z,6.70
2022-10-28T01:38:01.081Z,6.80
2022-10-28T01:39:01.058Z,7.40
2022-10-28T01:40:01.052Z,7.00
2022-10-28T01:41:01.343Z,6.70
2022-10-28T01:42:01.026Z,6.60
2022-10-28T01:43:01.009Z,6.90
2022-10-28T01:44:01.002Z,6.80
2022-10-28T01:45:00.980Z,6.70
2022-10-28T01:46:00.979Z,6.60
2022-10-28T01:50:03.182Z,6.90
2022-10-28T01:51:04.257Z,7.60
2022-10-28T01:52:04.136Z,7.20
2022-10-28T01:53:04.126Z,7.10
2022-10-28T01:54:04.125Z,6.80
2022-10-28T01:55:04.111Z,7.40
2022-10-28T01:56:04.081Z,8.00
2022-10-28T01:57:04.115Z,8.00
2022-10-28T01:58:04.074Z,7.50
2022-10-28T01:59:04.046Z,7.20
2022-10-28T02:00:04.034Z,7.70
2022-10-28T02:01:04.064Z,7.10
2022-10-28T02:02:04.024Z,8.20
2022-10-28T02:03:03.997Z,7.00
2022-10-28T02:04:03.979Z,6.80
2022-10-28T02:10:03.259Z,7.60
2022-10-28T02:11:04.203Z,7.30
2022-10-28T02:12:04.173Z,7.10
2022-10-28T02:13:04.147Z,7.50
2022-10-28T02:14:04.167Z,7.40
2022-10-28T02:15:04.193Z,7.20
2022-10-28T02:16:04.138Z,7.20
2022-10-28T02:17:04.113Z,6.60
2022-10-28T02:18:04.092Z,6.80
2022-10-28T02:19:04.066Z,7.00
2022-10-28T02:20:04.063Z,7.40
2022-10-28T02:21:04.086Z,6.90
2022-10-28T02:22:04.035Z,7.20
2022-10-28T02:23:04.013Z,7.50
2022-10-28T02:24:04.004Z,7.00
2022-10-28T02:25:04.011Z,7.30
2022-10-28T02:29:58.138Z,7.00
2022-10-28T02:30:59.118Z,7.20
2022-10-28T02:31:59.121Z,7.20
2022-10-28T02:32:59.092Z,7.20
2022-10-28T02:33:59.078Z,7.30
2022-10-28T02:34:59.064Z,7.70
2022-10-28T02:35:59.050Z,7.70
2022-10-28T02:36:59.063Z,7.40
2022-10-28T02:37:59.020Z,7.20
2022-10-28T02:38:59.010Z,7.30
2022-10-28T02:39:58.993Z,6.80
2022-10-28T02:40:58.995Z,7.50
2022-10-28T02:41:58.991Z,7.60
2022-10-28T02:42:58.960Z,7.80
2022-10-28T02:43:58.954Z,7.50
2022-10-28T02:44:58.982Z,7.40
2022-10-28T02:45:58.911Z,7.70
2022-10-28T02:46:58.922Z,7.10
2022-10-28T02:47:58.886Z,7.10
2022-10-28T02:48:58.873Z,7.40
2022-10-28T02:49:58.864Z,7.10
2022-10-28T02:50:58.856Z,7.80
2022-10-28T02:51:58.855Z,7.30
2022-10-28T02:52:58.841Z,7.20
2022-10-28T02:53:58.807Z,7.80
2022-10-28T02:54:58.809Z,7.20
2022-10-28T02:55:58.782Z,8.20
2022-10-28T02:56:58.796Z,7.30
2022-10-28T02:57:58.757Z,7.10
2022-10-28T02:58:58.743Z,8.30
2022-10-28T02:59:58.743Z,7.20
2022-10-28T03:00:58.779Z,7.70
2022-10-28T03:01:58.945Z,7.60
2022-10-28T03:02:58.700Z,7.30
2022-10-28T03:03:58.700Z,7.20
2022-10-28T03:09:57.898Z,7.30
2022-10-28T03:10:58.890Z,7.50
2022-10-28T03:11:58.859Z,7.80
2022-10-28T03:12:58.858Z,8.10
2022-10-28T03:13:58.841Z,6.70
2022-10-28T03:14:58.829Z,6.90
2022-10-28T03:15:58.820Z,7.50
2022-10-28T03:16:58.793Z,7.20
2022-10-28T03:17:58.794Z,7.70
2022-10-28T03:18:58.828Z,6.80
2022-10-28T03:19:58.751Z,6.40
2022-10-28T03:20:59.178Z,7.20
2022-10-28T03:21:58.721Z,6.80
2022-10-28T03:22:58.721Z,6.80
2022-10-28T03:23:58.706Z,6.70
2022-10-28T03:24:58.686Z,6.60
2022-10-28T03:25:58.686Z,7.30
2022-10-28T03:26:58.668Z,6.80
2022-10-28T03:27:58.671Z,6.50
2022-10-28T03:28:58.636Z,7.10
2022-10-28T03:29:58.620Z,7.10
2022-10-28T03:30:58.671Z,7.20
2022-10-28T03:31:58.600Z,7.60
2022-10-28T03:32:58.587Z,7.40
2022-10-28T03:33:58.574Z,8.00
2022-10-28T03:34:58.555Z,6.90
2022-10-28T03:35:58.572Z,6.90
2022-10-28T03:36:58.531Z,7.70
2022-10-28T03:37:58.516Z,7.50
2022-10-28T03:38:58.502Z,7.20
2022-10-28T03:39:58.478Z,7.00
2022-10-28T03:40:58.514Z,6.80
2022-10-28T03:41:58.456Z,7.10
2022-10-28T03:42:58.490Z,7.30
2022-10-28T03:43:58.435Z,7.00
2022-10-28T03:44:58.431Z,7.60
2022-10-28T03:45:58.446Z,6.90
2022-10-28T03:46:58.393Z,7.40
2022-10-28T03:47:58.377Z,7.40
2022-10-28T03:48:58.379Z,6.90
2022-10-28T03:49:58.346Z,6.80
2022-10-28T03:50:58.380Z,6.80
2022-10-28T03:51:58.323Z,6.70
2022-10-28T03:52:58.311Z,7.30
2022-10-28T03:53:58.297Z,7.40
2022-10-28T03:54:58.304Z,7.40
2022-10-28T03:55:58.318Z,7.20
2022-10-28T03:56:58.259Z,7.30
2022-10-28T03:57:58.239Z,7.30
2022-10-28T03:58:58.249Z,7.00
2022-10-28T03:59:58.209Z,7.30
2022-10-28T04:00:58.326Z,8.10
2022-10-28T04:01:58.309Z,7.60
2022-10-28T04:02:58.198Z,7.90
2022-10-28T04:03:58.151Z,7.50
2022-10-28T04:09:57.382Z,8.10
2022-10-28T04:10:58.395Z,7.60
2022-10-28T04:11:58.379Z,7.30
2022-10-28T04:12:58.360Z,7.80
2022-10-28T04:13:58.323Z,7.40
2022-10-28T04:14:58.351Z,7.80
2022-10-28T04:15:58.319Z,7.60
2022-10-28T04:16:58.287Z,7.60
2022-10-28T04:17:58.262Z,7.30
2022-10-28T04:18:58.285Z,7.70
2022-10-28T04:19:58.304Z,7.70
2022-10-28T04:20:58.259Z,8.30
2022-10-28T04:21:58.203Z,7.60
2022-10-28T04:22:58.609Z,7.50
2022-10-28T04:23:58.188Z,7.60
2022-10-28T04:24:58.181Z,8.60
2022-10-28T04:25:58.197Z,7.50
2022-10-28T04:26:58.157Z,7.60
2022-10-28T04:27:58.143Z,7.40
2022-10-28T04:28:58.116Z,7.70
2022-10-28T04:29:58.106Z,7.50
2022-10-28T04:30:58.106Z,7.50
2022-10-28T04:31:58.096Z,7.60
2022-10-28T04:32:58.073Z,7.30
2022-10-28T04:33:58.049Z,7.80
2022-10-28T04:34:58.037Z,7.20
2022-10-28T04:35:58.047Z,7.50
2022-10-28T04:36:58.042Z,7.40
2022-10-28T04:37:57.987Z,7.20
2022-10-28T04:38:58.022Z,7.40
2022-10-28T04:39:57.958Z,7.00
2022-10-28T04:40:57.964Z,7.10
2022-10-28T04:41:57.934Z,7.20
2022-10-28T04:42:57.929Z,7.10
2022-10-28T04:43:57.901Z,7.80
2022-10-28T04:44:58.021Z,7.00
2022-10-28T04:45:57.892Z,7.50
2022-10-28T04:46:57.878Z,7.70
2022-10-28T04:47:57.851Z,7.20
2022-10-28T04:48:57.869Z,7.50
2022-10-28T04:49:57.858Z,7.80
2022-10-28T04:50:57.833Z,7.90
2022-10-28T04:51:57.790Z,7.60
2022-10-28T04:52:57.798Z,7.80
2022-10-28T04:53:57.768Z,7.60
2022-10-28T04:54:57.764Z,7.90
2022-10-28T04:55:57.763Z,8.40
2022-10-28T04:56:57.745Z,7.60
2022-10-28T04:57:57.717Z,7.90
2022-10-28T04:58:57.729Z,7.70
2022-10-28T04:59:57.738Z,7.70
2022-10-28T05:00:57.715Z,8.20
2022-10-28T05:01:57.781Z,8.20
2022-10-28T05:02:58.164Z,8.20
2022-10-28T05:03:57.636Z,8.20
2022-10-28T05:09:56.862Z,8.10
2022-10-28T05:10:57.851Z,7.60
2022-10-28T05:11:57.835Z,8.00
2022-10-28T05:12:57.814Z,7.70
2022-10-28T05:13:57.799Z,7.90
2022-10-28T05:14:57.786Z,8.80
2022-10-28T05:15:57.798Z,7.90
2022-10-28T05:16:57.757Z,7.80
2022-10-28T05:17:57.774Z,7.50
2022-10-28T05:18:57.724Z,7.70
2022-10-28T05:19:57.712Z,7.60
2022-10-28T05:20:57.715Z,7.80
2022-10-28T05:21:57.699Z,8.80
2022-10-28T05:22:58.142Z,7.40
2022-10-28T05:23:57.666Z,7.70
2022-10-28T05:24:57.641Z,7.70
2022-10-28T05:25:57.650Z,7.60
2022-10-28T05:26:57.616Z,7.00
2022-10-28T05:27:57.619Z,7.50
2022-10-28T05:28:57.597Z,8.00
2022-10-28T05:29:57.582Z,7.10
2022-10-28T05:30:57.607Z,7.60
2022-10-28T05:31:57.707Z,8.40
2022-10-28T05:32:57.891Z,7.20
2022-10-28T05:33:57.530Z,7.10
2022-10-28T05:34:57.584Z,8.30
2022-10-28T05:35:57.519Z,7.60
2022-10-28T05:36:57.485Z,7.10
2022-10-28T05:37:57.477Z,7.50
2022-10-28T05:38:57.455Z,7.40
2022-10-28T05:39:57.449Z,8.40
2022-10-28T05:40:57.454Z,7.40
2022-10-28T05:41:57.428Z,7.30
2022-10-28T05:42:57.353Z,7.40
2022-10-28T05:43:57.401Z,7.30
2022-10-28T05:44:57.382Z,7.20
2022-10-28T05:45:57.405Z,7.60
2022-10-28T05:46:57.314Z,7.30
2022-10-28T05:47:57.324Z,10.20
2022-10-28T05:48:57.276Z,9.30
2022-10-28T05:49:57.350Z,8.50
2022-10-28T05:50:57.310Z,9.10
2022-10-28T05:51:57.296Z,8.40
2022-10-28T05:52:57.247Z,7.60
2022-10-28T05:53:57.233Z,7.80
2022-10-28T05:54:57.189Z,9.00
2022-10-28T05:55:57.211Z,8.00
2022-10-28T05:56:57.174Z,7.50
2022-10-28T05:57:57.717Z,8.00
2022-10-28T05:58:57.145Z,7.70
2022-10-28T05:59:57.126Z,9.50
2022-10-28T06:00:57.143Z,7.80
2022-10-28T06:01:57.207Z,7.20
2022-10-28T06:02:57.308Z,7.70
2022-10-28T06:03:57.101Z,7.30
2022-10-28T06:09:56.278Z,7.40
2022-10-28T06:10:55.698Z,7.20
2022-10-28T06:11:55.673Z,7.40
2022-10-28T06:12:55.682Z,8.00
2022-10-28T06:13:55.652Z,7.10
2022-10-28T06:14:55.649Z,7.10
2022-10-28T06:15:55.652Z,7.40
2022-10-28T06:16:55.622Z,7.20
2022-10-28T06:17:55.590Z,7.50
2022-10-28T06:18:55.612Z,8.20
2022-10-28T06:19:55.572Z,7.30
2022-10-28T06:20:55.641Z,7.00
2022-10-28T06:21:55.548Z,7.50
2022-10-28T06:29:59.741Z,7.30
2022-10-28T06:31:00.718Z,7.60
2022-10-28T06:32:00.684Z,8.10
2022-10-28T06:33:00.708Z,7.20
2022-10-28T06:34:00.673Z,7.40
2022-10-28T06:35:00.648Z,7.40
2022-10-28T06:36:00.676Z,7.70
2022-10-28T06:37:00.614Z,9.00
2022-10-28T06:38:00.616Z,7.20
2022-10-28T06:39:00.594Z,8.20
2022-10-28T06:40:00.595Z,7.80
2022-10-28T06:41:00.580Z,7.40
2022-10-28T06:42:00.567Z,8.20
2022-10-28T06:43:00.576Z,7.70
2022-10-28T06:44:00.578Z,7.70
2022-10-28T06:45:00.522Z,7.50
2022-10-28T06:46:00.533Z,7.20
2022-10-28T06:47:02.020Z,7.60
2022-10-28T06:48:01.998Z,7.10
2022-10-28T06:49:01.978Z,7.10
2022-10-28T06:50:01.984Z,7.60
2022-10-28T06:51:01.970Z,8.00
2022-10-28T06:52:01.943Z,7.00
2022-10-28T06:53:01.949Z,6.90
2022-10-28T06:54:01.922Z,7.40
2022-10-28T06:55:01.910Z,7.00
2022-10-28T06:56:01.912Z,7.60
2022-10-28T06:57:01.877Z,7.20
2022-10-28T06:58:01.891Z,8.20
2022-10-28T06:59:01.913Z,7.00
2022-10-28T07:00:01.854Z,7.20
2022-10-28T07:01:01.853Z,7.00
2022-10-28T07:02:01.940Z,7.40
2022-10-28T07:03:01.944Z,7.30
2022-10-28T07:04:01.813Z,7.60
2022-10-28T07:05:01.794Z,6.80
2022-10-28T07:06:01.861Z,7.60
2022-10-28T07:07:01.753Z,7.80
2022-10-28T07:08:01.765Z,6.90
2022-10-28T07:09:01.730Z,7.20
2022-10-28T07:10:01.724Z,7.60
2022-10-28T07:11:01.727Z,8.10
2022-10-28T07:12:04.791Z,7.00
2022-10-28T07:13:01.687Z,7.60
2022-10-28T07:14:01.669Z,7.30
2022-10-28T07:15:01.650Z,7.60
2022-10-28T07:16:01.643Z,7.00
2022-10-28T07:17:01.680Z,7.10
2022-10-28T07:18:01.632Z,7.30
2022-10-28T07:19:01.609Z,7.40
2022-10-28T07:20:01.601Z,6.70
2022-10-28T07:21:01.607Z,7.00
2022-10-28T07:22:01.572Z,7.60
2022-10-28T07:23:01.570Z,6.90
2022-10-28T07:24:01.553Z,6.70
2022-10-28T07:25:01.541Z,7.20
2022-10-28T07:26:01.676Z,6.80
2022-10-28T07:27:01.515Z,7.10
2022-10-28T07:28:01.502Z,6.60
2022-10-28T07:29:01.489Z,6.80
2022-10-28T07:30:01.485Z,7.20
2022-10-28T07:31:01.505Z,6.80
2022-10-28T07:32:01.503Z,6.70
2022-10-28T07:33:01.431Z,6.40
2022-10-28T07:34:01.436Z,6.60
2022-10-28T07:35:01.404Z,7.10
2022-10-28T07:36:01.409Z,6.90
2022-10-28T07:37:01.407Z,6.80
2022-10-28T07:38:01.371Z,7.50
2022-10-28T07:39:01.358Z,6.90
2022-10-28T07:40:01.363Z,7.50
2022-10-28T07:41:01.353Z,8.10
2022-10-28T07:42:01.345Z,8.20
2022-10-28T07:43:01.304Z,7.50
2022-10-28T07:44:01.281Z,7.70
2022-10-28T07:45:01.283Z,7.10
2022-10-28T07:46:01.292Z,8.00
2022-10-28T07:47:01.245Z,8.00
2022-10-28T07:48:01.248Z,7.50
2022-10-28T07:49:01.235Z,7.20
2022-10-28T07:50:01.207Z,6.90
2022-10-28T07:51:01.197Z,8.20
2022-10-28T07:52:01.225Z,7.40
2022-10-28T07:53:01.273Z,7.90
2022-10-28T07:54:01.183Z,7.40
2022-10-28T07:55:01.144Z,7.80
2022-10-28T07:56:01.157Z,7.70
2022-10-28T07:57:01.114Z,7.80
2022-10-28T07:58:01.096Z,9.00
2022-10-28T07:59:01.083Z,7.20
2022-10-28T08:00:01.111Z,7.60
2022-10-28T08:01:01.118Z,7.30
2022-10-28T08:02:01.096Z,7.00
2022-10-28T08:03:01.018Z,7.70
2022-10-28T08:04:01.012Z,6.90
2022-10-28T08:10:21.231Z,5.90
2022-10-28T08:11:22.209Z,6.80
2022-10-28T08:12:22.819Z,6.40
2022-10-28T08:13:22.165Z,6.50
2022-10-28T08:14:22.128Z,6.60
2022-10-28T08:15:22.144Z,6.70
2022-10-28T08:16:22.108Z,6.70
2022-10-28T08:17:22.117Z,6.60
2022-10-28T08:18:22.087Z,6.70
2022-10-28T08:19:22.062Z,6.20
2022-10-28T08:20:22.104Z,6.30
2022-10-28T08:21:22.070Z,6.70
2022-10-28T08:22:22.032Z,6.70
2022-10-28T08:29:56.223Z,6.70
2022-10-28T08:31:07.889Z,6.10
2022-10-28T08:31:57.177Z,6.90
2022-10-28T08:32:57.174Z,7.30
2022-10-28T08:33:57.155Z,7.40
2022-10-28T08:34:57.116Z,7.40
2022-10-28T08:35:57.172Z,6.20
2022-10-28T08:36:57.154Z,6.60
2022-10-28T08:37:57.300Z,6.70
2022-10-28T08:38:57.115Z,6.20
2022-10-28T08:39:57.054Z,7.00
2022-10-28T08:40:57.062Z,6.70
2022-10-28T08:41:57.067Z,7.70
2022-10-28T08:42:57.064Z,6.60
2022-10-28T08:43:57.979Z,7.00
2022-10-28T08:44:57.013Z,7.40
2022-10-28T08:45:56.979Z,6.60
2022-10-28T08:46:56.975Z,7.40
2022-10-28T08:47:57.414Z,6.50
2022-10-28T08:48:56.955Z,6.30
2022-10-28T08:49:57.038Z,6.50
2022-10-28T08:50:56.907Z,6.60
2022-10-28T08:51:56.914Z,6.70
2022-10-28T08:52:57.203Z,6.80
2022-10-28T08:53:56.895Z,7.30
2022-10-28T08:54:57.057Z,6.30
2022-10-28T08:55:56.850Z,6.60
2022-10-28T08:56:56.834Z,6.60
2022-10-28T08:57:56.823Z,6.70
2022-10-28T08:58:56.851Z,5.90
2022-10-28T08:59:56.841Z,6.40
2022-10-28T09:00:56.865Z,6.50
2022-10-28T09:01:56.911Z,6.10
2022-10-28T09:02:57.094Z,6.40
2022-10-28T09:03:56.797Z,6.40
2022-10-28T09:09:55.951Z,7.20
2022-10-28T09:10:56.882Z,6.50
2022-10-28T09:11:56.881Z,6.60
2022-10-28T09:12:57.065Z,6.70
2022-10-28T09:13:56.883Z,7.20
2022-10-28T09:14:56.864Z,6.80
2022-10-28T09:15:56.828Z,6.40
2022-10-28T09:16:56.808Z,7.00
2022-10-28T09:17:57.264Z,6.30
2022-10-28T09:18:56.792Z,7.00
2022-10-28T09:19:56.771Z,6.80
2022-10-28T09:20:56.796Z,6.50
2022-10-28T09:21:56.790Z,6.60
2022-10-28T09:30:00.938Z,6.90
2022-10-28T09:31:01.897Z,7.30
2022-10-28T09:32:01.876Z,6.50
2022-10-28T09:33:01.874Z,6.20
2022-10-28T09:34:01.852Z,6.70
2022-10-28T09:35:01.915Z,7.00
2022-10-28T09:36:01.844Z,6.20
2022-10-28T09:37:01.821Z,5.40
2022-10-28T09:38:01.837Z,6.40
2022-10-28T09:39:01.864Z,6.20
2022-10-28T09:40:01.809Z,6.20
2022-10-28T09:41:01.777Z,5.80
2022-10-28T09:42:01.749Z,6.40
2022-10-28T09:43:01.744Z,6.10
2022-10-28T09:44:01.738Z,5.90
2022-10-28T09:45:01.740Z,5.60
2022-10-28T09:46:01.722Z,6.30
2022-10-28T09:47:01.690Z,6.60
2022-10-28T09:48:01.673Z,6.80
2022-10-28T09:49:01.705Z,6.00
2022-10-28T09:50:01.660Z,5.80
2022-10-28T09:51:01.661Z,5.90
2022-10-28T09:52:01.645Z,6.00
2022-10-28T09:53:01.615Z,6.30
2022-10-28T09:54:01.623Z,5.90
2022-10-28T09:55:01.605Z,5.50
2022-10-28T09:56:01.616Z,5.40
2022-10-28T09:57:01.562Z,5.60
2022-10-28T09:58:01.548Z,5.70
2022-10-28T09:59:01.544Z,5.60
2022-10-28T10:00:01.589Z,5.70
2022-10-28T10:01:01.512Z,6.20
2022-10-28T10:02:01.653Z,6.60
2022-10-28T10:03:01.602Z,6.00
2022-10-28T10:04:01.481Z,5.50
2022-10-28T10:09:59.761Z,7.50
2022-10-28T10:11:00.721Z,5.60
2022-10-28T10:12:00.647Z,5.90
2022-10-28T10:13:00.652Z,6.40
2022-10-28T10:14:00.629Z,5.70
2022-10-28T10:15:00.675Z,5.70
2022-10-28T10:16:00.598Z,6.20
2022-10-28T10:17:00.601Z,6.00
2022-10-28T10:18:00.578Z,7.30
2022-10-28T10:19:00.565Z,6.40
2022-10-28T10:20:00.576Z,6.00
2022-10-28T10:21:00.534Z,6.00
2022-10-28T10:22:00.566Z,6.40
2022-10-28T10:23:00.524Z,6.30
2022-10-28T10:24:00.496Z,6.20
2022-10-28T10:29:54.638Z,6.40
2022-10-28T10:30:55.615Z,6.40
2022-10-28T10:31:55.593Z,6.00
2022-10-28T10:32:55.596Z,6.40
2022-10-28T10:33:55.564Z,5.40
2022-10-28T10:34:55.563Z,6.20
2022-10-28T10:35:59.875Z,6.30
2022-10-28T10:36:55.554Z,6.30
2022-10-28T10:37:55.960Z,6.20
2022-10-28T10:38:55.504Z,6.30
2022-10-28T10:39:55.495Z,5.90
2022-10-28T10:40:55.790Z,6.00
2022-10-28T10:41:55.518Z,6.20
2022-10-28T10:43:12.776Z,5.90
2022-10-28T10:43:55.546Z,5.90
2022-10-28T10:44:55.442Z,6.30
2022-10-28T10:45:55.397Z,6.90
2022-10-28T10:46:55.401Z,5.70
2022-10-28T10:47:55.762Z,6.20
2022-10-28T10:48:55.380Z,6.00
2022-10-28T10:49:55.366Z,6.40
2022-10-28T10:50:55.357Z,5.50
2022-10-28T10:51:55.327Z,5.50
2022-10-28T10:52:55.610Z,6.00
2022-10-28T10:53:55.297Z,6.10
2022-10-28T10:54:55.329Z,6.10
2022-10-28T10:55:55.277Z,5.50
2022-10-28T10:56:55.331Z,5.60
2022-10-28T10:57:55.666Z,5.80
2022-10-28T10:58:55.238Z,6.40
2022-10-28T10:59:55.249Z,6.00
2022-10-28T11:00:55.238Z,6.30
2022-10-28T11:01:55.356Z,6.50
2022-10-28T11:02:56.082Z,6.10
2022-10-28T11:03:55.305Z,5.40
2022-10-28T11:09:54.349Z,6.10
2022-10-28T11:10:55.336Z,5.70
2022-10-28T11:11:55.294Z,6.10
2022-10-28T11:12:55.581Z,6.50
2022-10-28T11:13:55.278Z,5.50
2022-10-28T11:14:55.269Z,6.10
2022-10-28T11:15:55.257Z,6.70
2022-10-28T11:16:55.247Z,5.50
2022-10-28T11:17:55.561Z,6.20
2022-10-28T11:18:55.287Z,5.90
2022-10-28T11:19:55.194Z,6.10
2022-10-28T11:20:55.221Z,6.20
2022-10-28T11:21:55.198Z,6.30
2022-10-28T11:22:55.681Z,6.10
2022-10-28T11:23:55.165Z,6.70
2022-10-28T11:29:49.292Z,5.90
2022-10-28T11:30:50.262Z,6.10
2022-10-28T11:31:50.240Z,6.10
2022-10-28T11:33:01.997Z,7.10
2022-10-28T11:33:50.275Z,6.00
2022-10-28T11:34:50.189Z,6.10
2022-10-28T11:35:50.193Z,5.90
2022-10-28T11:36:50.166Z,5.80
2022-10-28T11:37:50.161Z,5.80
2022-10-28T11:38:50.164Z,6.90
2022-10-28T11:39:50.157Z,6.20
2022-10-28T11:40:50.134Z,6.40
2022-10-28T11:41:50.106Z,6.00
2022-10-28T11:42:50.102Z,5.80
2022-10-28T11:43:54.569Z,6.30
2022-10-28T11:44:50.075Z,5.70
2022-10-28T11:45:51.535Z,6.00
2022-10-28T11:46:50.031Z,6.20
2022-10-28T11:47:50.047Z,6.30
2022-10-28T11:48:50.011Z,6.30
2022-10-28T11:49:49.991Z,6.00
2022-10-28T11:50:50.020Z,6.20
2022-10-28T11:51:49.967Z,6.40
2022-10-28T11:52:49.955Z,6.20
2022-10-28T11:53:49.942Z,5.90
2022-10-28T11:54:49.925Z,5.70
2022-10-28T11:55:49.944Z,5.70
2022-10-28T11:56:49.913Z,10.30
2022-10-28T11:57:49.897Z,5.60
2022-10-28T11:58:49.897Z,5.70
2022-10-28T11:59:49.887Z,5.50
2022-10-28T12:00:49.843Z,5.80
2022-10-28T12:01:50.007Z,5.70
2022-10-28T12:02:53.216Z,5.80
2022-10-28T12:03:49.809Z,5.60
2022-10-28T12:04:49.809Z,6.00
2022-10-28T12:05:49.797Z,5.90
2022-10-28T12:06:49.767Z,5.70
2022-10-28T12:07:49.787Z,5.50
2022-10-28T12:08:49.758Z,5.30
2022-10-28T12:09:49.769Z,6.10
2022-10-28T12:10:49.729Z,5.70
2022-10-28T12:11:49.749Z,5.60
2022-10-28T12:12:51.379Z,5.70
2022-10-28T12:13:49.768Z,6.00
2022-10-28T12:14:49.698Z,5.70
2022-10-28T12:15:49.684Z,5.80
2022-10-28T12:16:49.654Z,6.40
2022-10-28T12:17:49.640Z,6.50
2022-10-28T12:18:49.651Z,5.70
2022-10-28T12:19:49.607Z,5.70
2022-10-28T12:20:49.609Z,5.40
2022-10-28T12:21:49.575Z,5.70
2022-10-28T12:22:49.578Z,5.60
2022-10-28T12:23:49.572Z,6.10
2022-10-28T12:24:49.560Z,7.00
2022-10-28T12:25:49.550Z,6.00
2022-10-28T12:26:49.519Z,5.80
2022-10-28T12:27:49.502Z,5.80
2022-10-28T12:28:49.503Z,5.70
2022-10-28T12:29:49.493Z,5.70
2022-10-28T12:30:49.497Z,5.40
2022-10-28T12:31:49.450Z,5.70
2022-10-28T12:32:49.437Z,5.50
2022-10-28T12:33:49.436Z,6.30
2022-10-28T12:34:49.424Z,5.60
2022-10-28T12:35:49.436Z,5.70
2022-10-28T12:36:49.387Z,5.50
2022-10-28T12:37:49.485Z,5.70
2022-10-28T12:38:49.372Z,6.00
2022-10-28T12:39:49.355Z,6.00
2022-10-28T12:40:49.489Z,5.50
2022-10-28T12:41:49.324Z,6.00
2022-10-28T12:42:49.311Z,5.90
2022-10-28T12:43:49.358Z,5.60
2022-10-28T12:44:52.847Z,5.60
2022-10-28T12:45:49.291Z,5.60
2022-10-28T12:47:49.247Z,5.80
2022-10-28T12:48:49.239Z,5.40
2022-10-28T12:49:49.229Z,5.50
2022-10-28T12:50:49.236Z,5.60
2022-10-28T12:51:49.198Z,5.40
2022-10-28T12:52:49.196Z,5.60
2022-10-28T12:53:49.161Z,5.50
2022-10-28T12:54:53.554Z,5.60
2022-10-28T12:55:49.198Z,5.60
2022-10-28T12:56:49.147Z,5.50
2022-10-28T12:57:49.168Z,5.90
2022-10-28T12:58:49.100Z,5.90
2022-10-28T12:59:49.095Z,5.70
2022-10-28T13:00:49.160Z,5.90
2022-10-28T13:09:57.406Z,7.10
2022-10-28T13:10:58.387Z,6.70
2022-10-28T13:11:58.359Z,6.70
2022-10-28T13:12:58.341Z,6.20
2022-10-28T13:13:58.434Z,6.30
2022-10-28T13:14:58.387Z,6.20
2022-10-28T13:15:58.318Z,6.00
2022-10-28T13:16:58.288Z,6.40
2022-10-28T13:17:58.356Z,5.80
2022-10-28T13:18:58.280Z,5.90
2022-10-28T13:19:58.289Z,5.80
2022-10-28T13:20:58.238Z,6.40
2022-10-28T13:21:58.227Z,5.80
2022-10-28T13:30:02.465Z,7.40
2022-10-28T13:31:03.380Z,6.30
2022-10-28T13:32:03.373Z,6.60
2022-10-28T13:33:03.403Z,5.50
2022-10-28T13:34:03.453Z,6.80
2022-10-28T13:35:03.339Z,5.60
2022-10-28T13:36:03.357Z,6.00
2022-10-28T13:37:03.341Z,5.90
2022-10-28T13:38:03.291Z,6.10
2022-10-28T13:39:03.275Z,9.30
2022-10-28T13:40:09.422Z,7.40
2022-10-28T13:41:09.267Z,6.10
2022-10-28T13:42:09.248Z,5.80
2022-10-28T13:43:09.222Z,6.10
2022-10-28T13:44:09.241Z,6.00
2022-10-28T13:45:09.313Z,5.90
2022-10-28T13:46:09.237Z,6.00
2022-10-28T13:47:10.184Z,6.10
2022-10-28T13:48:09.228Z,6.20
2022-10-28T13:49:09.144Z,5.60
2022-10-28T13:50:03.153Z,6.60
2022-10-28T13:51:03.114Z,6.10
2022-10-28T13:52:03.113Z,6.60
2022-10-28T13:53:03.144Z,6.00
2022-10-28T13:54:03.103Z,6.20
2022-10-28T13:55:03.093Z,6.30
2022-10-28T13:56:03.047Z,6.30
2022-10-28T13:57:03.092Z,6.20
2022-10-28T13:58:03.059Z,6.00
2022-10-28T13:59:03.010Z,6.10
2022-10-28T14:00:03.017Z,5.50
2022-10-28T14:01:03.048Z,6.20
2022-10-28T14:09:57.196Z,6.20
2022-10-28T14:10:58.156Z,6.10
2022-10-28T14:11:58.156Z,6.10
2022-10-28T14:12:58.627Z,5.60
2022-10-28T14:13:58.124Z,5.70
2022-10-28T14:14:58.119Z,5.90
2022-10-28T14:15:58.108Z,6.10
2022-10-28T14:16:58.102Z,6.30
2022-10-28T14:18:05.142Z,5.90
2022-10-28T14:18:58.061Z,5.40
2022-10-28T14:19:58.074Z,6.20
2022-10-28T14:20:58.029Z,6.30
2022-10-28T14:22:02.055Z,5.70
2022-10-28T14:22:58.001Z,5.70
2022-10-28T14:23:58.002Z,6.20
2022-10-28T14:24:57.988Z,5.60
2022-10-28T14:25:57.960Z,6.10
2022-10-28T14:26:58.105Z,7.00
2022-10-28T14:27:57.934Z,6.00
2022-10-28T14:28:57.925Z,6.30
2022-10-28T14:29:57.925Z,6.30
2022-10-28T14:30:57.998Z,6.70
2022-10-28T14:31:57.885Z,5.90
2022-10-28T14:32:57.867Z,6.20
2022-10-28T14:33:57.863Z,6.60
2022-10-28T14:34:57.865Z,5.70
2022-10-28T14:35:57.831Z,6.20
2022-10-28T14:36:57.803Z,6.70
2022-10-28T14:37:57.789Z,6.50
2022-10-28T14:38:57.791Z,6.30
2022-10-28T14:39:57.796Z,6.80
2022-10-28T14:40:57.761Z,6.80
2022-10-28T14:41:57.846Z,6.20
2022-10-28T14:42:57.735Z,7.30
2022-10-28T14:43:57.733Z,6.40
2022-10-28T14:44:57.740Z,6.70
2022-10-28T14:45:57.708Z,6.70
2022-10-28T14:46:57.708Z,6.60
2022-10-28T14:47:57.877Z,6.50
2022-10-28T14:48:57.653Z,6.50
2022-10-28T14:49:57.666Z,6.90
2022-10-28T14:50:57.669Z,6.10
2022-10-28T14:51:57.621Z,6.10
2022-10-28T14:52:57.605Z,5.90
2022-10-28T14:53:57.613Z,6.00
2022-10-28T14:54:57.603Z,5.60
2022-10-28T14:55:57.610Z,5.80
2022-10-28T14:56:57.551Z,5.60
2022-10-28T14:57:57.965Z,5.50
2022-10-28T14:58:57.529Z,6.00
2022-10-28T14:59:57.551Z,5.60
2022-10-28T15:00:57.549Z,6.30
2022-10-28T15:01:57.551Z,6.20
2022-10-28T15:02:57.481Z,5.80
2022-10-28T15:03:57.475Z,5.20
2022-10-28T15:04:57.469Z,5.70